sensor_id;sensor_type;location;lat;lon;timestamp;temperature;humidity
79014;DHT22;68419;44.714;37.756;2023-03-14T00:00:44;24.23;34.61
79014;DHT22;68419;44.714;37.756;2023-03-14T00:01:45;24.23;34.62
79014;DHT22;68419;44.714;37.756;2023-03-14T00:02:52;24.21;34.58
79014;DHT22;68419;44.714;37.756;2023-03-14T00:03:54;24.20;34.65
79014;DHT22;68419;44.714;37.756;2023-03-14T00:04:55;24.19;34.66
79014;DHT22;68419;44.714;37.756;2023-03-14T00:06:02;24.19;34.69
79014;DHT22;68419;44.714;37.756;2023-03-14T00:07:04;24.23;34.57
79014;DHT22;68419;44.714;37.756;2023-03-14T00:08:06;24.24;34.47
79014;DHT22;68419;44.714;37.756;2023-03-14T00:09:07;24.25;34.49
79014;DHT22;68419;44.714;37.756;2023-03-14T00:10:12;24.25;34.55
79014;DHT22;68419;44.714;37.756;2023-03-14T00:11:21;24.24;34.46
79014;DHT22;68419;44.714;37.756;2023-03-14T00:12:23;24.23;34.45
79014;DHT22;68419;44.714;37.756;2023-03-14T00:13:24;24.24;34.51
79014;DHT22;68419;44.714;37.756;2023-03-14T00:14:26;24.21;34.53
79014;DHT22;68419;44.714;37.756;2023-03-14T00:15:27;24.23;34.53
79014;DHT22;68419;44.714;37.756;2023-03-14T00:16:28;24.25;34.54
79014;DHT22;68419;44.714;37.756;2023-03-14T00:17:30;24.21;34.57
79014;DHT22;68419;44.714;37.756;2023-03-14T00:18:32;24.21;34.49
79014;DHT22;68419;44.714;37.756;2023-03-14T00:19:33;24.20;34.44
79014;DHT22;68419;44.714;37.756;2023-03-14T00:20:34;24.26;34.23
79014;DHT22;68419;44.714;37.756;2023-03-14T00:21:36;24.27;34.19
79014;DHT22;68419;44.714;37.756;2023-03-14T00:22:38;24.25;34.25
79014;DHT22;68419;44.714;37.756;2023-03-14T00:23:41;24.27;34.15
79014;DHT22;68419;44.714;37.756;2023-03-14T00:24:42;24.26;34.19
79014;DHT22;68419;44.714;37.756;2023-03-14T00:25:44;24.24;34.31
79014;DHT22;68419;44.714;37.756;2023-03-14T00:26:45;24.23;34.39
79014;DHT22;68419;44.714;37.756;2023-03-14T00:27:46;24.24;34.38
79014;DHT22;68419;44.714;37.756;2023-03-14T00:28:52;24.25;34.29
79014;DHT22;68419;44.714;37.756;2023-03-14T00:29:53;24.28;34.21
79014;DHT22;68419;44.714;37.756;2023-03-14T00:30:55;24.29;34.25
79014;DHT22;68419;44.714;37.756;2023-03-14T00:31:56;24.27;34.21
79014;DHT22;68419;44.714;37.756;2023-03-14T00:32:58;24.21;34.50
79014;DHT22;68419;44.714;37.756;2023-03-14T00:33:59;24.19;36.14
79014;DHT22;68419;44.714;37.756;2023-03-14T00:35:00;24.15;36.75
79014;DHT22;68419;44.714;37.756;2023-03-14T00:36:04;24.10;36.96
79014;DHT22;68419;44.714;37.756;2023-03-14T00:37:06;24.03;37.35
79014;DHT22;68419;44.714;37.756;2023-03-14T00:38:07;24.00;37.56
79014;DHT22;68419;44.714;37.756;2023-03-14T00:39:09;23.98;37.56
79014;DHT22;68419;44.714;37.756;2023-03-14T00:40:10;23.94;37.56
79014;DHT22;68419;44.714;37.756;2023-03-14T00:41:14;23.90;37.74
79014;DHT22;68419;44.714;37.756;2023-03-14T00:42:16;23.86;37.65
79014;DHT22;68419;44.714;37.756;2023-03-14T00:43:18;23.86;37.63
79014;DHT22;68419;44.714;37.756;2023-03-14T00:44:20;23.83;37.57
79014;DHT22;68419;44.714;37.756;2023-03-14T00:45:21;23.82;37.56
79014;DHT22;68419;44.714;37.756;2023-03-14T00:46:22;23.81;37.49
79014;DHT22;68419;44.714;37.756;2023-03-14T00:47:24;23.81;37.44
79014;DHT22;68419;44.714;37.756;2023-03-14T00:48:25;23.80;37.33
79014;DHT22;68419;44.714;37.756;2023-03-14T00:49:27;23.81;37.28
79014;DHT22;68419;44.714;37.756;2023-03-14T00:50:29;23.82;37.18
79014;DHT22;68419;44.714;37.756;2023-03-14T00:51:30;23.81;37.14
79014;DHT22;68419;44.714;37.756;2023-03-14T00:52:32;23.82;37.09
79014;DHT22;68419;44.714;37.756;2023-03-14T00:53:38;23.83;37.01
79014;DHT22;68419;44.714;37.756;2023-03-14T00:54:40;23.83;36.98
79014;DHT22;68419;44.714;37.756;2023-03-14T00:55:42;23.82;36.92
79014;DHT22;68419;44.714;37.756;2023-03-14T00:56:44;23.80;36.91
79014;DHT22;68419;44.714;37.756;2023-03-14T00:57:47;23.82;36.93
79014;DHT22;68419;44.714;37.756;2023-03-14T00:58:48;23.80;36.88
79014;DHT22;68419;44.714;37.756;2023-03-14T00:59:51;23.79;36.85
79014;DHT22;68419;44.714;37.756;2023-03-14T01:00:52;23.79;36.87
79014;DHT22;68419;44.714;37.756;2023-03-14T01:01:54;23.77;36.82
79014;DHT22;68419;44.714;37.756;2023-03-14T01:02:56;23.79;36.79
79014;DHT22;68419;44.714;37.756;2023-03-14T01:03:58;23.81;36.76
79014;DHT22;68419;44.714;37.756;2023-03-14T01:05:00;23.80;36.67
79014;DHT22;68419;44.714;37.756;2023-03-14T01:06:16;23.81;36.62
79014;DHT22;68419;44.714;37.756;2023-03-14T01:07:18;23.79;36.59
79014;DHT22;68419;44.714;37.756;2023-03-14T01:08:20;23.77;36.59
79014;DHT22;68419;44.714;37.756;2023-03-14T01:09:21;23.79;36.55
79014;DHT22;68419;44.714;37.756;2023-03-14T01:10:23;23.79;36.50
79014;DHT22;68419;44.714;37.756;2023-03-14T01:11:28;23.81;36.47
79014;DHT22;68419;44.714;37.756;2023-03-14T01:12:29;23.79;36.41
79014;DHT22;68419;44.714;37.756;2023-03-14T01:13:31;23.82;36.40
79014;DHT22;68419;44.714;37.756;2023-03-14T01:14:32;23.81;36.37
79014;DHT22;68419;44.714;37.756;2023-03-14T01:15:36;23.81;36.34
79014;DHT22;68419;44.714;37.756;2023-03-14T01:16:37;23.81;36.31
79014;DHT22;68419;44.714;37.756;2023-03-14T01:17:39;23.79;36.29
79014;DHT22;68419;44.714;37.756;2023-03-14T01:18:42;23.79;36.26
79014;DHT22;68419;44.714;37.756;2023-03-14T01:19:44;23.80;36.24
79014;DHT22;68419;44.714;37.756;2023-03-14T01:20:46;23.82;36.18
79014;DHT22;68419;44.714;37.756;2023-03-14T01:21:48;23.79;36.18
79014;DHT22;68419;44.714;37.756;2023-03-14T01:22:49;23.80;36.16
79014;DHT22;68419;44.714;37.756;2023-03-14T01:23:53;23.77;36.18
79014;DHT22;68419;44.714;37.756;2023-03-14T01:24:54;23.75;36.21
79014;DHT22;68419;44.714;37.756;2023-03-14T01:25:56;23.80;36.05
79014;DHT22;68419;44.714;37.756;2023-03-14T01:26:57;23.83;35.94
79014;DHT22;68419;44.714;37.756;2023-03-14T01:28:00;23.83;35.83
79014;DHT22;68419;44.714;37.756;2023-03-14T01:29:03;23.85;35.65
79014;DHT22;68419;44.714;37.756;2023-03-14T01:30:07;23.88;35.51
79014;DHT22;68419;44.714;37.756;2023-03-14T01:31:10;23.89;35.50
79014;DHT22;68419;44.714;37.756;2023-03-14T01:32:12;23.89;35.40
79014;DHT22;68419;44.714;37.756;2023-03-14T01:33:13;23.91;35.33
79014;DHT22;68419;44.714;37.756;2023-03-14T01:34:18;23.91;35.30
79014;DHT22;68419;44.714;37.756;2023-03-14T01:35:20;23.92;35.25
79014;DHT22;68419;44.714;37.756;2023-03-14T01:36:22;23.95;35.18
79014;DHT22;68419;44.714;37.756;2023-03-14T01:37:23;23.98;35.08
79014;DHT22;68419;44.714;37.756;2023-03-14T01:38:25;23.99;34.95
79014;DHT22;68419;44.714;37.756;2023-03-14T01:39:26;24.00;34.97
79014;DHT22;68419;44.714;37.756;2023-03-14T01:40:29;24.02;34.90
79014;DHT22;68419;44.714;37.756;2023-03-14T01:41:31;24.01;34.92
79014;DHT22;68419;44.714;37.756;2023-03-14T01:42:34;24.00;34.95
79014;DHT22;68419;44.714;37.756;2023-03-14T01:43:36;24.01;34.92
79014;DHT22;68419;44.714;37.756;2023-03-14T01:45:52;23.98;34.99
79014;DHT22;68419;44.714;37.756;2023-03-14T01:47:40;24.00;34.84
79014;DHT22;68419;44.714;37.756;2023-03-14T01:48:59;24.01;34.85
79014;DHT22;68419;44.714;37.756;2023-03-14T01:50:08;24.01;34.82
79014;DHT22;68419;44.714;37.756;2023-03-14T01:51:18;24.00;34.80
79014;DHT22;68419;44.714;37.756;2023-03-14T01:52:24;23.98;34.87
79014;DHT22;68419;44.714;37.756;2023-03-14T01:53:27;23.97;34.85
79014;DHT22;68419;44.714;37.756;2023-03-14T01:54:39;23.98;34.81
79014;DHT22;68419;44.714;37.756;2023-03-14T01:55:41;23.97;34.79
79014;DHT22;68419;44.714;37.756;2023-03-14T01:56:46;23.97;34.79
79014;DHT22;68419;44.714;37.756;2023-03-14T01:57:51;23.96;34.76
79014;DHT22;68419;44.714;37.756;2023-03-14T01:58:54;23.98;34.71
79014;DHT22;68419;44.714;37.756;2023-03-14T02:00:03;23.98;34.74
79014;DHT22;68419;44.714;37.756;2023-03-14T02:01:15;23.99;34.67
79014;DHT22;68419;44.714;37.756;2023-03-14T02:02:17;24.00;34.67
79014;DHT22;68419;44.714;37.756;2023-03-14T02:03:20;24.00;34.51
79014;DHT22;68419;44.714;37.756;2023-03-14T02:04:23;24.01;34.51
79014;DHT22;68419;44.714;37.756;2023-03-14T02:05:29;24.02;34.49
79014;DHT22;68419;44.714;37.756;2023-03-14T02:06:47;24.02;34.53
79014;DHT22;68419;44.714;37.756;2023-03-14T02:07:53;23.98;34.55
79014;DHT22;68419;44.714;37.756;2023-03-14T02:09:00;23.95;34.63
79014;DHT22;68419;44.714;37.756;2023-03-14T02:10:05;23.94;34.59
79014;DHT22;68419;44.714;37.756;2023-03-14T02:11:08;23.96;34.53
79014;DHT22;68419;44.714;37.756;2023-03-14T02:12:33;23.99;34.38
79014;DHT22;68419;44.714;37.756;2023-03-14T02:14:16;23.99;34.43
79014;DHT22;68419;44.714;37.756;2023-03-14T02:15:47;23.97;34.52
79014;DHT22;68419;44.714;37.756;2023-03-14T02:17:22;23.96;34.47
79014;DHT22;68419;44.714;37.756;2023-03-14T02:18:42;23.94;34.53
79014;DHT22;68419;44.714;37.756;2023-03-14T02:21:57;23.91;34.61
79014;DHT22;68419;44.714;37.756;2023-03-14T02:23:07;23.89;34.65
79014;DHT22;68419;44.714;37.756;2023-03-14T02:24:23;23.88;34.70
79014;DHT22;68419;44.714;37.756;2023-03-14T02:25:39;23.85;34.70
79014;DHT22;68419;44.714;37.756;2023-03-14T02:28:02;23.88;34.53
79014;DHT22;68419;44.714;37.756;2023-03-14T02:29:03;23.88;34.58
79014;DHT22;68419;44.714;37.756;2023-03-14T02:30:11;23.88;34.61
79014;DHT22;68419;44.714;37.756;2023-03-14T02:31:16;23.87;34.64
79014;DHT22;68419;44.714;37.756;2023-03-14T02:32:19;23.86;34.61
79014;DHT22;68419;44.714;37.756;2023-03-14T02:33:23;23.87;34.60
79014;DHT22;68419;44.714;37.756;2023-03-14T02:34:24;23.86;34.50
79014;DHT22;68419;44.714;37.756;2023-03-14T02:35:36;23.90;34.49
79014;DHT22;68419;44.714;37.756;2023-03-14T02:36:38;23.92;34.41
79014;DHT22;68419;44.714;37.756;2023-03-14T02:37:52;23.92;34.41
79014;DHT22;68419;44.714;37.756;2023-03-14T02:39:06;23.94;34.38
79014;DHT22;68419;44.714;37.756;2023-03-14T02:40:10;23.94;34.41
79014;DHT22;68419;44.714;37.756;2023-03-14T02:41:14;23.91;34.44
79014;DHT22;68419;44.714;37.756;2023-03-14T02:42:21;23.91;34.41
79014;DHT22;68419;44.714;37.756;2023-03-14T02:43:23;23.90;34.35
79014;DHT22;68419;44.714;37.756;2023-03-14T02:44:31;23.90;34.41
79014;DHT22;68419;44.714;37.756;2023-03-14T02:45:40;23.90;34.37
79014;DHT22;68419;44.714;37.756;2023-03-14T02:46:42;23.94;34.36
79014;DHT22;68419;44.714;37.756;2023-03-14T02:47:52;23.94;34.30
79014;DHT22;68419;44.714;37.756;2023-03-14T02:48:57;23.95;34.37
79014;DHT22;68419;44.714;37.756;2023-03-14T02:50:11;23.94;34.34
79014;DHT22;68419;44.714;37.756;2023-03-14T02:51:14;23.92;34.31
79014;DHT22;68419;44.714;37.756;2023-03-14T02:52:16;23.91;34.43
79014;DHT22;68419;44.714;37.756;2023-03-14T02:53:27;23.89;34.41
79014;DHT22;68419;44.714;37.756;2023-03-14T02:54:32;23.90;34.34
79014;DHT22;68419;44.714;37.756;2023-03-14T02:55:33;23.89;34.41
79014;DHT22;68419;44.714;37.756;2023-03-14T02:56:39;23.90;34.32
79014;DHT22;68419;44.714;37.756;2023-03-14T02:57:42;23.91;34.35
79014;DHT22;68419;44.714;37.756;2023-03-14T02:58:43;23.91;34.34
79014;DHT22;68419;44.714;37.756;2023-03-14T03:00:00;23.89;34.31
79014;DHT22;68419;44.714;37.756;2023-03-14T03:01:02;23.89;34.34
79014;DHT22;68419;44.714;37.756;2023-03-14T03:02:04;23.89;34.24
79014;DHT22;68419;44.714;37.756;2023-03-14T03:03:06;23.90;34.34
79014;DHT22;68419;44.714;37.756;2023-03-14T03:04:07;23.89;34.29
79014;DHT22;68419;44.714;37.756;2023-03-14T03:05:09;23.90;34.18
79014;DHT22;68419;44.714;37.756;2023-03-14T03:06:10;23.91;34.29
79014;DHT22;68419;44.714;37.756;2023-03-14T03:07:11;23.91;34.34
79014;DHT22;68419;44.714;37.756;2023-03-14T03:08:13;23.88;34.34
79014;DHT22;68419;44.714;37.756;2023-03-14T03:09:15;23.85;34.42
79014;DHT22;68419;44.714;37.756;2023-03-14T03:10:16;23.85;34.33
79014;DHT22;68419;44.714;37.756;2023-03-14T03:11:18;23.86;34.41
79014;DHT22;68419;44.714;37.756;2023-03-14T03:12:19;23.87;34.26
79014;DHT22;68419;44.714;37.756;2023-03-14T03:13:21;23.85;34.37
79014;DHT22;68419;44.714;37.756;2023-03-14T03:14:26;23.86;34.28
79014;DHT22;68419;44.714;37.756;2023-03-14T03:15:31;23.87;34.30
79014;DHT22;68419;44.714;37.756;2023-03-14T03:16:32;23.89;34.34
79014;DHT22;68419;44.714;37.756;2023-03-14T03:17:34;23.86;34.31
79014;DHT22;68419;44.714;37.756;2023-03-14T03:18:36;23.87;34.32
79014;DHT22;68419;44.714;37.756;2023-03-14T03:19:37;23.85;34.34
79014;DHT22;68419;44.714;37.756;2023-03-14T03:20:38;23.85;34.31
79014;DHT22;68419;44.714;37.756;2023-03-14T03:21:40;23.86;34.33
79014;DHT22;68419;44.714;37.756;2023-03-14T03:22:41;23.87;34.22
79014;DHT22;68419;44.714;37.756;2023-03-14T03:23:44;23.87;34.29
79014;DHT22;68419;44.714;37.756;2023-03-14T03:24:45;23.84;34.34
79014;DHT22;68419;44.714;37.756;2023-03-14T03:25:50;23.84;34.22
79014;DHT22;68419;44.714;37.756;2023-03-14T03:26:52;23.86;34.23
79014;DHT22;68419;44.714;37.756;2023-03-14T03:27:54;23.87;34.22
79014;DHT22;68419;44.714;37.756;2023-03-14T03:28:56;23.87;34.27
79014;DHT22;68419;44.714;37.756;2023-03-14T03:29:58;23.85;34.33
79014;DHT22;68419;44.714;37.756;2023-03-14T03:31:06;23.84;34.34
79014;DHT22;68419;44.714;37.756;2023-03-14T03:32:09;23.88;34.27
79014;DHT22;68419;44.714;37.756;2023-03-14T03:33:11;23.87;34.25
79014;DHT22;68419;44.714;37.756;2023-03-14T03:34:13;23.88;34.28
79014;DHT22;68419;44.714;37.756;2023-03-14T03:35:15;23.86;34.32
79014;DHT22;68419;44.714;37.756;2023-03-14T03:36:21;23.84;34.25
79014;DHT22;68419;44.714;37.756;2023-03-14T03:37:23;23.85;34.28
79014;DHT22;68419;44.714;37.756;2023-03-14T03:38:25;23.85;34.33
79014;DHT22;68419;44.714;37.756;2023-03-14T03:39:28;23.85;34.24
79014;DHT22;68419;44.714;37.756;2023-03-14T03:40:30;23.84;34.37
79014;DHT22;68419;44.714;37.756;2023-03-14T03:41:32;23.83;34.26
79014;DHT22;68419;44.714;37.756;2023-03-14T03:42:34;23.82;34.31
79014;DHT22;68419;44.714;37.756;2023-03-14T03:43:36;23.83;34.35
79014;DHT22;68419;44.714;37.756;2023-03-14T03:44:39;23.82;34.31
79014;DHT22;68419;44.714;37.756;2023-03-14T03:45:41;23.83;34.56
79014;DHT22;68419;44.714;37.756;2023-03-14T03:46:42;23.79;34.53
79014;DHT22;68419;44.714;37.756;2023-03-14T03:47:44;23.77;34.70
79014;DHT22;68419;44.714;37.756;2023-03-14T03:48:46;23.76;34.92
79014;DHT22;68419;44.714;37.756;2023-03-14T03:49:47;23.74;35.06
79014;DHT22;68419;44.714;37.756;2023-03-14T03:50:49;23.73;35.11
79014;DHT22;68419;44.714;37.756;2023-03-14T03:51:54;23.73;35.25
79014;DHT22;68419;44.714;37.756;2023-03-14T03:52:55;23.71;35.21
79014;DHT22;68419;44.714;37.756;2023-03-14T03:53:57;23.72;35.08
79014;DHT22;68419;44.714;37.756;2023-03-14T03:55:08;23.77;34.57
79014;DHT22;68419;44.714;37.756;2023-03-14T03:56:10;23.83;34.32
79014;DHT22;68419;44.714;37.756;2023-03-14T03:57:11;23.89;34.23
79014;DHT22;68419;44.714;37.756;2023-03-14T03:58:13;23.90;34.60
79014;DHT22;68419;44.714;37.756;2023-03-14T03:59:14;23.90;34.57
79014;DHT22;68419;44.714;37.756;2023-03-14T04:00:15;23.90;34.44
79014;DHT22;68419;44.714;37.756;2023-03-14T04:01:17;23.89;34.25
79014;DHT22;68419;44.714;37.756;2023-03-14T04:02:22;23.89;34.23
79014;DHT22;68419;44.714;37.756;2023-03-14T04:03:25;23.89;34.24
79014;DHT22;68419;44.714;37.756;2023-03-14T04:04:28;23.91;34.08
79014;DHT22;68419;44.714;37.756;2023-03-14T04:05:29;23.97;33.85
79014;DHT22;68419;44.714;37.756;2023-03-14T04:06:38;23.99;33.71
79014;DHT22;68419;44.714;37.756;2023-03-14T04:07:39;23.99;33.63
79014;DHT22;68419;44.714;37.756;2023-03-14T04:08:41;24.00;33.65
79014;DHT22;68419;44.714;37.756;2023-03-14T04:09:45;24.01;33.51
79014;DHT22;68419;44.714;37.756;2023-03-14T04:11:09;24.02;33.68
79014;DHT22;68419;44.714;37.756;2023-03-14T04:12:29;23.97;33.89
79014;DHT22;68419;44.714;37.756;2023-03-14T04:13:38;23.92;33.96
79014;DHT22;68419;44.714;37.756;2023-03-14T04:14:40;23.89;34.09
79014;DHT22;68419;44.714;37.756;2023-03-14T04:15:50;23.86;34.21
79014;DHT22;68419;44.714;37.756;2023-03-14T04:16:58;23.84;34.24
79014;DHT22;68419;44.714;37.756;2023-03-14T04:17:59;23.82;34.31
79014;DHT22;68419;44.714;37.756;2023-03-14T04:19:01;23.82;34.35
79014;DHT22;68419;44.714;37.756;2023-03-14T04:20:03;23.77;34.35
79014;DHT22;68419;44.714;37.756;2023-03-14T04:21:10;23.76;34.41
79014;DHT22;68419;44.714;37.756;2023-03-14T04:22:20;23.72;34.48
79014;DHT22;68419;44.714;37.756;2023-03-14T04:23:25;23.70;34.67
79014;DHT22;68419;44.714;37.756;2023-03-14T04:24:26;23.69;34.82
79014;DHT22;68419;44.714;37.756;2023-03-14T04:25:30;23.66;35.18
79014;DHT22;68419;44.714;37.756;2023-03-14T04:26:33;23.65;35.41
79014;DHT22;68419;44.714;37.756;2023-03-14T04:27:34;23.61;35.62
79014;DHT22;68419;44.714;37.756;2023-03-14T04:28:37;23.62;35.83
79014;DHT22;68419;44.714;37.756;2023-03-14T04:29:42;23.62;36.03
79014;DHT22;68419;44.714;37.756;2023-03-14T04:30:45;23.61;36.06
79014;DHT22;68419;44.714;37.756;2023-03-14T04:31:50;23.60;36.05
79014;DHT22;68419;44.714;37.756;2023-03-14T04:32:52;23.62;36.03
79014;DHT22;68419;44.714;37.756;2023-03-14T04:33:54;23.60;36.04
79014;DHT22;68419;44.714;37.756;2023-03-14T04:35:03;23.61;36.01
79014;DHT22;68419;44.714;37.756;2023-03-14T04:36:06;23.61;35.95
79014;DHT22;68419;44.714;37.756;2023-03-14T04:37:07;23.61;35.89
79014;DHT22;68419;44.714;37.756;2023-03-14T04:38:13;23.62;35.86
79014;DHT22;68419;44.714;37.756;2023-03-14T04:39:17;23.61;35.70
79014;DHT22;68419;44.714;37.756;2023-03-14T04:40:27;23.64;35.63
79014;DHT22;68419;44.714;37.756;2023-03-14T04:41:33;23.62;35.64
79014;DHT22;68419;44.714;37.756;2023-03-14T04:42:35;23.65;35.61
79014;DHT22;68419;44.714;37.756;2023-03-14T04:43:37;23.66;35.53
79014;DHT22;68419;44.714;37.756;2023-03-14T04:44:41;23.65;35.47
79014;DHT22;68419;44.714;37.756;2023-03-14T04:45:44;23.67;35.43
79014;DHT22;68419;44.714;37.756;2023-03-14T04:46:46;23.65;35.40
79014;DHT22;68419;44.714;37.756;2023-03-14T04:47:48;23.67;35.39
79014;DHT22;68419;44.714;37.756;2023-03-14T04:48:53;23.68;35.31
79014;DHT22;68419;44.714;37.756;2023-03-14T04:49:54;23.69;35.28
79014;DHT22;68419;44.714;37.756;2023-03-14T04:50:57;23.70;35.23
79014;DHT22;68419;44.714;37.756;2023-03-14T04:51:59;23.70;35.20
79014;DHT22;68419;44.714;37.756;2023-03-14T04:53:02;23.70;35.15
79014;DHT22;68419;44.714;37.756;2023-03-14T04:54:04;23.72;35.16
79014;DHT22;68419;44.714;37.756;2023-03-14T04:55:05;23.71;35.18
79014;DHT22;68419;44.714;37.756;2023-03-14T04:56:07;23.71;35.12
79014;DHT22;68419;44.714;37.756;2023-03-14T04:57:12;23.72;35.10
79014;DHT22;68419;44.714;37.756;2023-03-14T04:58:14;23.72;35.08
79014;DHT22;68419;44.714;37.756;2023-03-14T04:59:16;23.71;35.09
79014;DHT22;68419;44.714;37.756;2023-03-14T05:00:18;23.71;35.05
79014;DHT22;68419;44.714;37.756;2023-03-14T05:01:35;23.70;35.08
79014;DHT22;68419;44.714;37.756;2023-03-14T05:03:01;23.70;35.06
79014;DHT22;68419;44.714;37.756;2023-03-14T05:04:10;23.71;35.02
79014;DHT22;68419;44.714;37.756;2023-03-14T05:05:30;23.71;35.01
79014;DHT22;68419;44.714;37.756;2023-03-14T05:06:43;23.73;34.94
79014;DHT22;68419;44.714;37.756;2023-03-14T05:07:58;23.71;34.98
79014;DHT22;68419;44.714;37.756;2023-03-14T05:09:32;23.71;34.96
79014;DHT22;68419;44.714;37.756;2023-03-14T05:10:52;23.72;34.94
79014;DHT22;68419;44.714;37.756;2023-03-14T05:12:22;23.73;34.92
79014;DHT22;68419;44.714;37.756;2023-03-14T05:13:50;23.74;34.89
79014;DHT22;68419;44.714;37.756;2023-03-14T05:15:17;23.73;34.89
79014;DHT22;68419;44.714;37.756;2023-03-14T05:16:38;23.74;34.84
79014;DHT22;68419;44.714;37.756;2023-03-14T05:18:07;23.74;34.81
79014;DHT22;68419;44.714;37.756;2023-03-14T05:19:30;23.74;34.82
79014;DHT22;68419;44.714;37.756;2023-03-14T05:21:00;23.72;34.88
79014;DHT22;68419;44.714;37.756;2023-03-14T05:22:20;23.70;34.94
79014;DHT22;68419;44.714;37.756;2023-03-14T05:23:44;23.71;34.86
79014;DHT22;68419;44.714;37.756;2023-03-14T05:25:09;23.70;34.90
79014;DHT22;68419;44.714;37.756;2023-03-14T05:26:26;23.71;34.87
79014;DHT22;68419;44.714;37.756;2023-03-14T05:27:47;23.69;34.91
79014;DHT22;68419;44.714;37.756;2023-03-14T05:29:14;23.69;34.87
79014;DHT22;68419;44.714;37.756;2023-03-14T05:30:38;23.71;34.84
79014;DHT22;68419;44.714;37.756;2023-03-14T05:32:18;23.70;34.83
79014;DHT22;68419;44.714;37.756;2023-03-14T05:33:46;23.70;34.81
79014;DHT22;68419;44.714;37.756;2023-03-14T05:35:10;23.70;34.82
79014;DHT22;68419;44.714;37.756;2023-03-14T05:36:22;23.68;34.84
79014;DHT22;68419;44.714;37.756;2023-03-14T05:37:40;23.69;34.86
79014;DHT22;68419;44.714;37.756;2023-03-14T05:39:02;23.66;34.90
79014;DHT22;68419;44.714;37.756;2023-03-14T05:40:24;23.66;34.87
79014;DHT22;68419;44.714;37.756;2023-03-14T05:41:52;23.66;34.89
79014;DHT22;68419;44.714;37.756;2023-03-14T05:43:19;23.66;34.89
79014;DHT22;68419;44.714;37.756;2023-03-14T05:44:23;23.66;34.86
79014;DHT22;68419;44.714;37.756;2023-03-14T05:45:45;23.68;34.85
79014;DHT22;68419;44.714;37.756;2023-03-14T05:47:12;23.65;34.92
79014;DHT22;68419;44.714;37.756;2023-03-14T05:48:25;23.65;34.86
79014;DHT22;68419;44.714;37.756;2023-03-14T05:49:46;23.64;34.89
79014;DHT22;68419;44.714;37.756;2023-03-14T05:50:53;23.65;34.89
79014;DHT22;68419;44.714;37.756;2023-03-14T05:52:06;23.62;34.91
79014;DHT22;68419;44.714;37.756;2023-03-14T05:53:30;23.59;34.98
79014;DHT22;68419;44.714;37.756;2023-03-14T05:54:50;23.62;34.92
79014;DHT22;68419;44.714;37.756;2023-03-14T05:56:12;23.64;34.86
79014;DHT22;68419;44.714;37.756;2023-03-14T05:57:34;23.66;34.85
79014;DHT22;68419;44.714;37.756;2023-03-14T05:58:54;23.62;34.87
79014;DHT22;68419;44.714;37.756;2023-03-14T06:00:15;23.64;34.83
79014;DHT22;68419;44.714;37.756;2023-03-14T06:01:33;23.64;34.88
79014;DHT22;68419;44.714;37.756;2023-03-14T06:02:45;23.64;34.88
79014;DHT22;68419;44.714;37.756;2023-03-14T06:03:55;23.65;34.86
79014;DHT22;68419;44.714;37.756;2023-03-14T06:04:57;23.64;34.83
79014;DHT22;68419;44.714;37.756;2023-03-14T06:05:59;23.62;34.87
79014;DHT22;68419;44.714;37.756;2023-03-14T06:07:01;23.62;34.88
79014;DHT22;68419;44.714;37.756;2023-03-14T06:08:03;23.61;34.89
79014;DHT22;68419;44.714;37.756;2023-03-14T06:09:06;23.61;34.90
79014;DHT22;68419;44.714;37.756;2023-03-14T06:10:10;23.62;34.86
79014;DHT22;68419;44.714;37.756;2023-03-14T06:11:13;23.64;34.83
79014;DHT22;68419;44.714;37.756;2023-03-14T06:12:15;23.65;34.82
79014;DHT22;68419;44.714;37.756;2023-03-14T06:13:19;23.66;34.84
79014;DHT22;68419;44.714;37.756;2023-03-14T06:14:20;23.67;34.81
79014;DHT22;68419;44.714;37.756;2023-03-14T06:15:24;23.67;34.76
79014;DHT22;68419;44.714;37.756;2023-03-14T06:16:28;23.65;34.81
79014;DHT22;68419;44.714;37.756;2023-03-14T06:17:30;23.65;34.83
79014;DHT22;68419;44.714;37.756;2023-03-14T06:18:38;23.66;34.79
79014;DHT22;68419;44.714;37.756;2023-03-14T06:19:42;23.68;34.78
79014;DHT22;68419;44.714;37.756;2023-03-14T06:20:46;23.68;34.78
79014;DHT22;68419;44.714;37.756;2023-03-14T06:21:55;23.66;34.82
79014;DHT22;68419;44.714;37.756;2023-03-14T06:22:59;23.65;34.85
79014;DHT22;68419;44.714;37.756;2023-03-14T06:24:01;23.62;34.87
79014;DHT22;68419;44.714;37.756;2023-03-14T06:25:05;23.62;34.86
79014;DHT22;68419;44.714;37.756;2023-03-14T06:26:07;23.64;34.89
79014;DHT22;68419;44.714;37.756;2023-03-14T06:27:08;23.62;34.88
79014;DHT22;68419;44.714;37.756;2023-03-14T06:28:10;23.66;34.86
79014;DHT22;68419;44.714;37.756;2023-03-14T06:29:12;23.64;34.82
79014;DHT22;68419;44.714;37.756;2023-03-14T06:30:16;23.65;34.86
79014;DHT22;68419;44.714;37.756;2023-03-14T06:31:18;23.65;34.81
79014;DHT22;68419;44.714;37.756;2023-03-14T06:32:27;23.67;34.77
79014;DHT22;68419;44.714;37.756;2023-03-14T06:33:32;23.66;34.78
79014;DHT22;68419;44.714;37.756;2023-03-14T06:34:35;23.68;34.76
79014;DHT22;68419;44.714;37.756;2023-03-14T06:35:36;23.68;34.78
79014;DHT22;68419;44.714;37.756;2023-03-14T06:36:38;23.68;34.75
79014;DHT22;68419;44.714;37.756;2023-03-14T06:37:40;23.67;34.79
79014;DHT22;68419;44.714;37.756;2023-03-14T06:38:42;23.67;34.81
79014;DHT22;68419;44.714;37.756;2023-03-14T06:39:44;23.67;34.79
79014;DHT22;68419;44.714;37.756;2023-03-14T06:40:53;23.66;34.81
79014;DHT22;68419;44.714;37.756;2023-03-14T06:42:06;23.66;34.84
79014;DHT22;68419;44.714;37.756;2023-03-14T06:43:07;23.64;34.86
79014;DHT22;68419;44.714;37.756;2023-03-14T06:44:11;23.62;34.90
79014;DHT22;68419;44.714;37.756;2023-03-14T06:45:13;23.61;34.92
79014;DHT22;68419;44.714;37.756;2023-03-14T06:46:14;23.61;34.88
79014;DHT22;68419;44.714;37.756;2023-03-14T06:47:17;23.64;34.86
79014;DHT22;68419;44.714;37.756;2023-03-14T06:48:20;23.66;34.81
79014;DHT22;68419;44.714;37.756;2023-03-14T06:49:26;23.65;34.79
79014;DHT22;68419;44.714;37.756;2023-03-14T06:50:30;23.65;34.79
79014;DHT22;68419;44.714;37.756;2023-03-14T06:51:33;23.65;34.74
79014;DHT22;68419;44.714;37.756;2023-03-14T06:52:37;23.67;34.76
79014;DHT22;68419;44.714;37.756;2023-03-14T06:53:42;23.67;34.77
79014;DHT22;68419;44.714;37.756;2023-03-14T06:54:43;23.66;34.80
79014;DHT22;68419;44.714;37.756;2023-03-14T06:55:44;23.66;34.78
79014;DHT22;68419;44.714;37.756;2023-03-14T06:56:48;23.68;34.73